Time;durP1;ratioP1;P1;durP2;ratioP2;P2;SDS_P1;SDS_P2;PMS_P1;PMS_P2;Temp;Humidity;BMP_temperature;BMP_pressure;BME280_temperature;BME280_humidity;BME280_pressure;Samples;Min_cycle;Max_cycle;Signal;HPM_P1;HPM_P2
2023/10/14 04:02:27;;;;;;;3.37;0.80;;;13.10;99.90;;;;;;5192070;22;20909;-72
2023/10/14 04:05:02;;;;;;;0.83;0.83;;;13.10;99.90;;;;;;5122228;27;20560;-71
2023/10/14 04:07:31;;;;;;;0.80;0.80;;;13.10;99.90;;;;;;5117806;27;20469;-72
2023/10/14 04:10:04;;;;;;;0.63;0.63;;;13.00;99.90;;;;;;5122959;27;20459;-72
2023/10/14 04:12:36;;;;;;;0.83;0.83;;;13.00;99.90;;;;;;5124388;27;20490;-72
2023/10/14 04:15:22;;;;;;;0.73;0.73;;;12.90;99.90;;;;;;5124471;27;20526;-72
2023/10/14 04:17:55;;;;;;;0.60;0.60;;;12.90;99.90;;;;;;5114881;27;20457;-73
2023/10/14 04:20:22;;;;;;;0.57;0.57;;;12.90;99.90;;;;;;5112013;28;20487;-72
2023/10/14 04:22:53;;;;;;;0.87;0.87;;;12.80;99.90;;;;;;5112190;28;20464;-72
2023/10/14 04:25:22;;;;;;;2.40;0.83;;;12.90;99.90;;;;;;5111904;28;20899;-72
2023/10/14 04:28:17;;;;;;;0.87;0.60;;;12.90;99.90;;;;;;5112157;28;20461;-71
2023/10/14 04:30:45;;;;;;;1.73;0.70;;;12.90;99.90;;;;;;5112005;28;20548;-72
2023/10/14 04:33:34;;;;;;;0.70;0.70;;;12.80;99.90;;;;;;5111877;28;20485;-72
2023/10/14 04:36:36;;;;;;;2.33;0.97;;;12.80;99.90;;;;;;5111674;28;20461;-72
2023/10/14 04:39:11;;;;;;;1.00;1.00;;;12.80;99.90;;;;;;5111649;28;20568;-72
2023/10/14 04:41:45;;;;;;;2.27;1.27;;;12.80;99.90;;;;;;5111840;28;20474;-72
2023/10/14 04:44:13;;;;;;;3.13;0.90;;;12.80;99.90;;;;;;5124519;28;20516;-72
2023/10/14 04:46:54;;;;;;;2.77;0.80;;;12.70;99.90;;;;;;5132445;28;20822;-72
2023/10/14 04:49:36;;;;;;;1.77;0.97;;;12.70;99.90;;;;;;5132489;28;20510;-71
2023/10/14 04:52:05;;;;;;;0.93;0.53;;;12.60;99.90;;;;;;5132038;27;20500;-72
2023/10/14 04:54:34;;;;;;;4.03;1.10;;;12.60;99.90;;;;;;5132275;28;20911;-72
2023/10/14 04:57:19;;;;;;;1.17;0.93;;;12.60;99.90;;;;;;5131988;28;20966;-71
2023/10/14 04:59:49;;;;;;;1.33;1.10;;;12.50;99.90;;;;;;5132915;28;20463;-71
2023/10/14 05:02:20;;;;;;;2.30;1.33;;;12.50;99.90;;;;;;5132140;28;20496;-71
2023/10/14 05:04:49;;;;;;;1.30;0.80;;;12.50;99.90;;;;;;5131824;27;20535;-71
2023/10/14 05:07:16;;;;;;;3.37;1.67;;;12.50;99.90;;;;;;5131943;27;20544;-71
2023/10/14 05:09:49;;;;;;;3.50;1.40;;;12.40;99.90;;;;;;5132027;28;20460;-70
2023/10/14 05:12:24;;;;;;;0.63;0.63;;;12.40;99.90;;;;;;5131722;28;20958;-71
2023/10/14 05:14:51;;;;;;;1.00;0.98;;;12.30;99.90;;;;;;5131851;28;20218;-72
2023/10/14 05:17:18;;;;;;;3.47;1.50;;;12.30;99.90;;;;;;5131952;27;20648;-71
2023/10/14 05:19:48;;;;;;;1.80;1.10;;;12.30;99.90;;;;;;5131621;28;20958;-72
2023/10/14 05:22:23;;;;;;;2.05;1.05;;;12.30;99.90;;;;;;5131534;28;20476;-71
2023/10/14 05:24:52;;;;;;;3.40;1.17;;;12.20;99.90;;;;;;5131747;28;20207;-71
2023/10/14 05:27:19;;;;;;;4.03;1.30;;;12.20;99.90;;;;;;5132131;27;20555;-71
2023/10/14 05:29:50;;;;;;;3.70;1.20;;;12.20;99.90;;;;;;5131503;27;20776;-71
2023/10/14 05:32:18;;;;;;;1.65;1.20;;;12.20;99.90;;;;;;5134915;27;20783;-71
2023/10/14 05:34:45;;;;;;;3.43;1.60;;;12.20;99.90;;;;;;5135203;27;20241;-72
2023/10/14 05:37:13;;;;;;;1.33;1.10;;;12.20;99.90;;;;;;5135485;27;20509;-72
2023/10/14 05:39:41;;;;;;;2.97;1.57;;;12.20;99.90;;;;;;5135100;27;20966;-72
2023/10/14 05:42:16;;;;;;;0.93;0.93;;;12.20;99.90;;;;;;5115076;28;20853;-71
2023/10/14 05:44:46;;;;;;;0.90;0.83;;;12.10;99.90;;;;;;5114425;28;20253;-71
2023/10/14 05:47:13;;;;;;;3.60;1.10;;;12.10;99.90;;;;;;5127641;27;20488;-71
2023/10/14 05:49:40;;;;;;;1.33;1.23;;;12.10;99.90;;;;;;5135073;27;20680;-71
2023/10/14 05:52:08;;;;;;;2.42;1.00;;;12.00;99.90;;;;;;5135166;27;20234;-71
2023/10/14 05:54:36;;;;;;;1.20;1.20;;;12.00;99.90;;;;;;5135451;27;20210;-71
2023/10/14 05:57:04;;;;;;;4.75;1.40;;;12.00;99.90;;;;;;5136183;27;20550;-72
2023/10/14 05:59:32;;;;;;;1.42;1.27;;;12.00;99.90;;;;;;5135901;27;20214;-72
2023/10/14 06:01:58;;;;;;;0.93;0.93;;;12.00;99.90;;;;;;5134834;27;20231;-72
2023/10/14 06:04:25;;;;;;;1.20;1.20;;;12.00;99.90;;;;;;5134969;27;20207;-72
2023/10/14 06:06:52;;;;;;;3.70;1.48;;;12.00;99.90;;;;;;5134719;27;20218;-72
2023/10/14 06:09:18;;;;;;;1.05;1.05;;;12.00;99.90;;;;;;5134964;27;20206;-71
2023/10/14 06:11:46;;;;;;;5.97;1.50;;;12.10;99.90;;;;;;5134486;27;20234;-72
2023/10/14 06:14:14;;;;;;;3.33;1.15;;;12.10;99.90;;;;;;5135112;27;20302;-72
2023/10/14 06:16:41;;;;;;;3.58;1.73;;;12.10;99.90;;;;;;5134841;27;20588;-72
2023/10/14 06:19:12;;;;;;;4.63;1.35;;;12.10;99.90;;;;;;5134818;27;20203;-72
2023/10/14 06:21:39;;;;;;;1.85;1.05;;;12.10;99.90;;;;;;5134733;27;20310;-71
2023/10/14 06:24:10;;;;;;;3.75;1.40;;;12.10;99.90;;;;;;5134682;27;20214;-72
2023/10/14 06:26:37;;;;;;;4.65;1.30;;;12.00;99.90;;;;;;5134449;27;20694;-71
2023/10/14 06:29:05;;;;;;;1.70;0.90;;;12.10;99.90;;;;;;5134585;27;20219;-72
2023/10/14 06:31:37;;;;;;;5.97;1.23;;;12.00;99.90;;;;;;5134340;27;20616;-71
2023/10/14 06:34:08;;;;;;;10.77;2.00;;;12.00;99.90;;;;;;5134448;27;20452;-72
2023/10/14 06:36:35;;;;;;;1.77;1.25;;;11.90;99.90;;;;;;5134321;27;20214;-73
2023/10/14 06:39:13;;;;;;;5.03;1.25;;;11.90;99.90;;;;;;5134308;27;20210;-72
2023/10/14 06:41:43;;;;;;;2.70;1.33;;;11.90;99.90;;;;;;5134686;27;20226;-72
2023/10/14 06:44:13;;;;;;;2.03;1.30;;;11.90;99.90;;;;;;5134861;27;20222;-71
2023/10/14 06:46:44;;;;;;;5.57;1.52;;;11.90;99.90;;;;;;5134621;27;20207;-70
2023/10/14 06:49:13;;;;;;;2.83;1.25;;;12.00;99.90;;;;;;5134690;27;20222;-70
2023/10/14 06:51:42;;;;;;;3.55;1.45;;;12.10;99.90;;;;;;5134599;27;20233;-72
2023/10/14 06:54:09;;;;;;;1.45;1.25;;;12.10;99.90;;;;;;5134606;27;20242;-70
2023/10/14 06:56:36;;;;;;;5.28;1.80;;;12.10;99.90;;;;;;5134069;27;20211;-72
2023/10/14 06:59:05;;;;;;;5.13;1.15;;;12.00;99.90;;;;;;5134029;27;20680;-72
2023/10/14 07:01:33;;;;;;;3.10;1.23;;;12.00;99.90;;;;;;5134121;27;20238;-72
2023/10/14 07:04:01;;;;;;;6.55;2.08;;;12.00;99.90;;;;;;5134361;27;20491;-69
2023/10/14 07:06:28;;;;;;;7.70;1.67;;;12.10;99.90;;;;;;5134594;27;20301;-70
2023/10/14 07:08:55;;;;;;;1.75;1.45;;;12.20;99.90;;;;;;5135660;27;20235;-70
2023/10/14 07:11:22;;;;;;;3.38;1.33;;;12.30;99.90;;;;;;5135398;27;20227;-70
2023/10/14 07:13:49;;;;;;;4.30;1.10;;;12.30;99.90;;;;;;5138339;27;20272;-70
2023/10/14 07:16:16;;;;;;;2.60;1.33;;;12.30;99.90;;;;;;5142473;27;20456;-70
2023/10/14 07:18:42;;;;;;;6.18;1.55;;;12.20;99.90;;;;;;5137974;27;20256;-70
2023/10/14 07:21:13;;;;;;;1.37;1.27;;;12.30;99.90;;;;;;5136793;27;20237;-70
2023/10/14 07:23:40;;;;;;;1.65;0.90;;;12.20;99.90;;;;;;5135784;27;20559;-69
2023/10/14 07:26:09;;;;;;;2.30;1.07;;;12.20;99.90;;;;;;5132397;27;20215;-69
2023/10/14 07:28:36;;;;;;;2.13;0.90;;;12.30;99.90;;;;;;5114900;28;20497;-70
2023/10/14 07:31:03;;;;;;;3.47;0.80;;;12.30;99.90;;;;;;5115079;28;20480;-69
2023/10/14 07:33:30;;;;;;;2.77;1.20;;;12.30;99.90;;;;;;5129291;27;20494;-70
2023/10/14 07:35:59;;;;;;;3.57;1.40;;;12.30;99.90;;;;;;5118943;27;20461;-69
2023/10/14 07:38:27;;;;;;;11.73;2.07;;;12.30;99.90;;;;;;5120004;27;20465;-69
2023/10/14 07:40:58;;;;;;;8.53;1.83;;;12.40;99.90;;;;;;5114944;27;20481;-70
2023/10/14 07:43:26;;;;;;;2.27;1.03;;;12.30;99.90;;;;;;5134170;27;20548;-70
2023/10/14 07:45:53;;;;;;;6.20;1.43;;;12.40;99.90;;;;;;5125640;27;20465;-69
2023/10/14 07:48:20;;;;;;;6.53;1.55;;;12.30;99.90;;;;;;5125198;27;20463;-69
2023/10/14 07:50:50;;;;;;;4.37;1.13;;;12.40;99.90;;;;;;5124522;27;20312;-69
2023/10/14 07:53:22;;;;;;;6.23;1.87;;;12.40;99.90;;;;;;5125571;27;20485;-69
2023/10/14 07:55:52;;;;;;;3.83;2.00;;;12.40;99.90;;;;;;5115806;27;20461;-69
2023/10/14 07:58:23;;;;;;;3.47;1.10;;;12.50;99.90;;;;;;5113222;28;20523;-69
2023/10/14 08:00:50;;;;;;;2.50;0.85;;;12.50;99.90;;;;;;5113036;28;20290;-70
2023/10/14 08:03:18;;;;;;;5.10;1.33;;;12.60;99.90;;;;;;5118416;27;20207;-69
2023/10/14 08:05:48;;;;;;;2.23;1.33;;;12.60;99.90;;;;;;5124585;27;20214;-69
2023/10/14 08:08:15;;;;;;;3.43;1.30;;;12.60;99.90;;;;;;5112763;28;20837;-69
2023/10/14 08:10:45;;;;;;;3.87;1.50;;;12.60;99.90;;;;;;5112386;28;21030;-70
2023/10/14 08:13:14;;;;;;;5.60;1.58;;;12.70;99.90;;;;;;5125270;27;20564;-69
2023/10/14 08:15:41;;;;;;;1.92;0.80;;;12.70;99.90;;;;;;5132863;27;20207;-69
2023/10/14 08:18:08;;;;;;;11.50;1.17;;;12.70;99.90;;;;;;5132627;27;20673;-69
2023/10/14 08:20:36;;;;;;;2.90;1.07;;;12.70;99.90;;;;;;5132682;27;20841;-69
2023/10/14 08:23:09;;;;;;;2.10;1.13;;;12.80;99.90;;;;;;5132247;27;20512;-69
2023/10/14 08:25:36;;;;;;;3.23;0.93;;;12.80;99.90;;;;;;5132530;27;20551;-69
2023/10/14 08:28:05;;;;;;;5.03;1.47;;;12.80;99.90;;;;;;5132478;28;20609;-69
2023/10/14 08:30:34;;;;;;;1.23;0.97;;;12.90;99.90;;;;;;5132419;27;20924;-69
2023/10/14 08:33:02;;;;;;;4.00;0.90;;;12.90;99.90;;;;;;5132333;27;20591;-69
2023/10/14 08:35:29;;;;;;;1.30;1.20;;;12.90;99.90;;;;;;5132195;28;20465;-69
2023/10/14 08:37:59;;;;;;;1.43;1.23;;;13.00;99.90;;;;;;5132424;28;20464;-69
2023/10/14 08:40:29;;;;;;;1.73;0.83;;;13.10;99.90;;;;;;5132295;28;20465;-69
2023/10/14 08:42:57;;;;;;;5.37;1.73;;;13.10;99.90;;;;;;5132231;28;20453;-70
2023/10/14 08:45:26;;;;;;;3.50;1.63;;;13.10;99.90;;;;;;5131883;28;20468;-70
2023/10/14 08:47:55;;;;;;;3.17;1.23;;;13.10;99.90;;;;;;5132014;28;20460;-69
2023/10/14 08:50:24;;;;;;;1.53;0.70;;;13.20;99.90;;;;;;5118232;28;20466;-69
2023/10/14 08:52:53;;;;;;;3.53;1.00;;;13.20;99.90;;;;;;5112338;28;21079;-69
2023/10/14 08:55:21;;;;;;;5.20;1.30;;;13.30;99.90;;;;;;5126866;27;20465;-69
2023/10/14 08:57:49;;;;;;;4.77;0.97;;;13.30;99.90;;;;;;5111445;28;20948;-69
2023/10/14 09:00:20;;;;;;;6.30;1.40;;;13.40;99.90;;;;;;5111492;28;20469;-69
2023/10/14 09:02:51;;;;;;;7.67;1.17;;;13.40;99.90;;;;;;5113126;28;20457;-70
2023/10/14 09:05:19;;;;;;;3.53;0.67;;;13.50;99.90;;;;;;5114447;28;20469;-70
2023/10/14 09:07:49;;;;;;;4.17;1.13;;;13.50;99.90;;;;;;5115891;28;20457;-70
2023/10/14 09:10:18;;;;;;;9.40;1.20;;;13.50;99.90;;;;;;5115563;28;20846;-70
2023/10/14 09:12:55;;;;;;;4.37;1.10;;;13.60;99.90;;;;;;5115280;28;20457;-69
2023/10/14 09:15:22;;;;;;;1.27;1.10;;;13.60;99.90;;;;;;5115549;28;20805;-70
2023/10/14 09:17:49;;;;;;;4.10;1.70;;;13.60;99.90;;;;;;5114932;28;20461;-69
2023/10/14 09:20:29;;;;;;;2.83;1.30;;;13.60;99.90;;;;;;5115369;28;20461;-69
2023/10/14 09:23:15;;;;;;;1.47;1.37;;;13.70;99.90;;;;;;5115248;28;20476;-69
2023/10/14 09:25:43;;;;;;;2.93;1.67;;;13.70;99.90;;;;;;5132104;27;20846;-70
2023/10/14 09:28:10;;;;;;;4.53;1.57;;;13.80;99.90;;;;;;5124088;27;20466;-70
2023/10/14 09:30:44;;;;;;;6.80;1.47;;;13.80;99.90;;;;;;5123423;27;20479;-69
2023/10/14 09:33:12;;;;;;;1.07;0.60;;;13.90;99.90;;;;;;5115248;28;20481;-69
2023/10/14 09:35:41;;;;;;;6.47;1.30;;;13.90;99.90;;;;;;5115052;28;20468;-70
2023/10/14 09:38:09;;;;;;;4.80;2.97;;;14.00;99.90;;;;;;5135664;27;20509;-70
2023/10/14 09:40:36;;;;;;;4.90;1.10;;;14.00;99.90;;;;;;5128592;27;20478;-69
2023/10/14 09:43:04;;;;;;;3.20;0.63;;;14.00;99.90;;;;;;5115278;28;20465;-69
2023/10/14 09:45:32;;;;;;;5.27;1.27;;;14.10;99.90;;;;;;5115099;28;20835;-70
2023/10/14 09:48:01;;;;;;;3.13;1.20;;;14.20;99.90;;;;;;5115054;28;20602;-69
2023/10/14 09:50:29;;;;;;;2.60;0.90;;;14.20;99.90;;;;;;5114813;28;20457;-69
2023/10/14 09:53:00;;;;;;;2.57;1.20;;;14.20;99.90;;;;;;5115002;28;20466;-69
2023/10/14 09:55:27;;;;;;;2.00;1.20;;;14.30;99.90;;;;;;5115266;28;20479;-70
2023/10/14 09:57:54;;;;;;;1.80;0.80;;;14.30;99.90;;;;;;5114916;28;20458;-70
2023/10/14 10:00:23;;;;;;;3.83;1.43;;;14.30;99.90;;;;;;5114571;28;20462;-69
2023/10/14 10:02:52;;;;;;;0.80;0.60;;;14.30;99.90;;;;;;5114654;28;20462;-70
2023/10/14 10:05:26;;;;;;;4.77;0.70;;;14.40;99.90;;;;;;5114732;28;20465;-69
2023/10/14 10:08:04;;;;;;;2.57;0.87;;;14.30;99.90;;;;;;5114760;28;20476;-70
2023/10/14 10:10:33;;;;;;;4.70;0.87;;;14.30;99.90;;;;;;5114699;28;20482;-69
2023/10/14 10:13:01;;;;;;;4.30;1.17;;;14.40;99.90;;;;;;5114780;28;20455;-69
2023/10/14 10:15:35;;;;;;;5.17;1.30;;;14.50;99.90;;;;;;5114802;28;20463;-71
2023/10/14 10:18:04;;;;;;;5.13;1.10;;;14.60;99.90;;;;;;5127569;22;20522;-71
2023/10/14 10:20:35;;;;;;;4.93;1.13;;;14.70;99.90;;;;;;5082796;28;20921;-71
2023/10/14 10:23:06;;;;;;;1.87;1.87;;;14.60;99.90;;;;;;5074028;28;20948;-72
2023/10/14 10:25:49;;;;;;;3.27;0.80;;;14.60;99.90;;;;;;5073897;28;20965;-71
2023/10/14 10:28:40;;;;;;;1.17;1.07;;;14.60;99.90;;;;;;5066748;28;20980;-71
2023/10/14 10:31:09;;;;;;;2.73;0.80;;;14.70;99.90;;;;;;5073791;28;21014;-72
2023/10/14 10:33:59;;;;;;;4.83;0.97;;;14.80;99.90;;;;;;5074999;28;20547;-72
2023/10/14 10:36:28;;;;;;;3.50;1.03;;;14.80;99.90;;;;;;5075106;28;20976;-72
2023/10/14 10:39:15;;;;;;;2.40;1.00;;;14.80;99.90;;;;;;5075017;28;20931;-72
2023/10/14 10:41:42;;;;;;;7.20;1.33;;;14.90;99.90;;;;;;5074815;28;20488;-72
2023/10/14 10:44:12;;;;;;;1.67;0.90;;;14.90;99.90;;;;;;5066225;28;20829;-72
2023/10/14 10:46:40;;;;;;;4.03;0.90;;;14.90;99.90;;;;;;5073923;28;20456;-71
2023/10/14 10:49:10;;;;;;;0.80;0.80;;;14.90;99.90;;;;;;5074692;28;20462;-71
2023/10/14 10:51:37;;;;;;;1.90;0.60;;;14.80;99.90;;;;;;5074302;28;20485;-72
2023/10/14 10:54:07;;;;;;;4.80;1.00;;;14.70;99.90;;;;;;5074551;28;20490;-71
2023/10/14 10:56:37;;;;;;;2.10;0.93;;;14.70;99.90;;;;;;5073973;28;20525;-71
2023/10/14 10:59:05;;;;;;;2.30;0.63;;;14.60;99.90;;;;;;5073882;28;20462;-71
2023/10/14 11:01:32;;;;;;;1.37;0.53;;;14.60;99.90;;;;;;5073528;28;20529;-71
2023/10/14 11:04:00;;;;;;;2.70;1.00;;;14.60;99.90;;;;;;5073432;28;20457;-71
2023/10/14 11:06:29;;;;;;;1.37;0.77;;;14.80;99.90;;;;;;5073682;28;20459;-71
2023/10/14 11:08:58;;;;;;;0.63;0.63;;;15.00;99.90;;;;;;5073344;28;20457;-70
2023/10/14 11:11:31;;;;;;;3.30;0.63;;;15.00;99.90;;;;;;5072882;28;20484;-71
2023/10/14 11:14:00;;;;;;;6.90;0.87;;;14.90;99.90;;;;;;5072614;28;20477;-72
2023/10/14 11:16:27;;;;;;;0.97;0.97;;;14.90;99.90;;;;;;5072806;28;20462;-72
2023/10/14 11:18:55;;;;;;;5.20;1.10;;;14.90;99.90;;;;;;5073272;28;20454;-71
2023/10/14 11:21:27;;;;;;;1.00;0.90;;;14.90;99.90;;;;;;5072906;28;20696;-71
2023/10/14 11:23:54;;;;;;;3.60;0.60;;;14.90;99.90;;;;;;5073000;28;20531;-71
2023/10/14 11:26:23;;;;;;;4.10;0.80;;;14.90;99.90;;;;;;5072550;28;20466;-71
2023/10/14 11:28:51;;;;;;;2.37;0.70;;;14.90;99.90;;;;;;5071786;28;20507;-71
2023/10/14 11:31:24;;;;;;;1.83;0.83;;;15.00;99.90;;;;;;5072223;28;20482;-70
2023/10/14 11:33:55;;;;;;;1.43;0.50;;;15.10;99.90;;;;;;5072975;28;20474;-71
2023/10/14 11:36:26;;;;;;;0.80;0.70;;;15.10;99.90;;;;;;5072695;28;20488;-71
2023/10/14 11:38:58;;;;;;;5.30;0.83;;;15.00;99.90;;;;;;5072431;28;20820;-71
2023/10/14 11:41:26;;;;;;;0.60;0.60;;;15.10;99.90;;;;;;5072545;28;20563;-71
2023/10/14 11:43:54;;;;;;;1.07;0.50;;;15.10;99.90;;;;;;5072482;28;20472;-71
2023/10/14 11:46:22;;;;;;;1.60;0.60;;;14.90;99.90;;;;;;5072258;28;20468;-71
2023/10/14 11:48:49;;;;;;;0.60;0.60;;;14.70;99.90;;;;;;5072291;28;20967;-72
2023/10/14 11:51:21;;;;;;;1.80;0.70;;;14.60;99.90;;;;;;5071867;28;20481;-72
2023/10/14 11:53:50;;;;;;;3.80;0.80;;;14.60;99.90;;;;;;5072277;28;20517;-72
2023/10/14 11:56:18;;;;;;;0.70;0.60;;;14.60;99.90;;;;;;5071775;28;20468;-72
2023/10/14 11:58:45;;;;;;;2.43;0.80;;;14.60;99.90;;;;;;5072118;28;20460;-72
2023/10/14 12:01:13;;;;;;;2.63;0.50;;;14.50;99.90;;;;;;5072036;28;20854;-72
2023/10/14 12:03:40;;;;;;;2.67;0.50;;;14.50;99.90;;;;;;5072246;28;20944;-72
2023/10/14 12:06:11;;;;;;;3.50;0.70;;;14.60;99.90;;;;;;5072270;28;20869;-72
2023/10/14 12:08:39;;;;;;;2.30;1.00;;;14.60;99.90;;;;;;5071950;28;20453;-72
2023/10/14 12:11:08;;;;;;;1.90;0.80;;;14.40;99.90;;;;;;5071657;28;20498;-72
2023/10/14 12:13:35;;;;;;;2.53;0.40;;;14.20;99.90;;;;;;5071892;28;20857;-72
2023/10/14 12:16:05;;;;;;;1.60;0.37;;;14.00;99.90;;;;;;5071535;28;20840;-71
2023/10/14 12:18:35;;;;;;;0.67;0.40;;;13.80;99.90;;;;;;5071686;28;20495;-71
2023/10/14 12:21:03;;;;;;;1.43;0.70;;;13.60;99.90;;;;;;5072364;28;20467;-71
2023/10/14 12:23:31;;;;;;;2.10;0.40;;;13.50;99.90;;;;;;5071817;28;20470;-71
2023/10/14 12:25:59;;;;;;;0.87;0.60;;;13.40;99.90;;;;;;5072114;28;20457;-71
2023/10/14 12:28:30;;;;;;;0.50;0.50;;;13.30;99.90;;;;;;5071823;28;20813;-70
2023/10/14 12:30:58;;;;;;;2.23;0.60;;;13.30;99.90;;;;;;5071906;28;20486;-72
2023/10/14 12:33:31;;;;;;;0.60;0.60;;;13.30;99.90;;;;;;5071685;28;20461;-70
2023/10/14 12:36:00;;;;;;;1.80;0.60;;;13.30;99.90;;;;;;5071831;28;20496;-71
2023/10/14 12:38:27;;;;;;;0.77;0.40;;;13.30;99.90;;;;;;5071485;28;20455;-70
2023/10/14 12:40:55;;;;;;;3.40;0.70;;;13.20;99.90;;;;;;5071071;28;20893;-71
2023/10/14 12:43:28;;;;;;;4.63;0.70;;;13.20;99.90;;;;;;5071393;28;20467;-70
2023/10/14 12:46:09;;;;;;;2.10;0.70;;;13.20;99.90;;;;;;5072065;28;20448;-71
2023/10/14 12:48:39;;;;;;;0.93;0.80;;;13.20;99.90;;;;;;5071629;28;20462;-71
2023/10/14 12:51:09;;;;;;;3.00;0.90;;;13.30;99.90;;;;;;5071537;28;20511;-71
2023/10/14 12:53:36;;;;;;;2.10;0.70;;;13.40;99.90;;;;;;5071456;28;20455;-71
2023/10/14 12:56:03;;;;;;;0.43;0.43;;;13.40;99.90;;;;;;5071636;28;20459;-70
2023/10/14 12:58:31;;;;;;;1.27;0.70;;;13.40;99.90;;;;;;5071758;28;20459;-71
2023/10/14 13:01:05;;;;;;;3.53;0.60;;;13.50;99.90;;;;;;5071313;28;20587;-71
2023/10/14 13:03:35;;;;;;;1.80;1.00;;;13.60;99.90;;;;;;5071926;28;20547;-71
2023/10/14 13:06:05;;;;;;;1.37;0.90;;;13.60;99.90;;;;;;5071500;28;20455;-71
2023/10/14 13:08:36;;;;;;;1.33;0.80;;;13.60;99.90;;;;;;5071559;28;20482;-70
2023/10/14 13:11:03;;;;;;;3.27;1.10;;;13.70;99.90;;;;;;5071269;28;20538;-71
2023/10/14 13:13:29;;;;;;;1.53;0.63;;;13.70;99.90;;;;;;5071587;28;20939;-71
2023/10/14 13:15:56;;;;;;;1.17;0.80;;;13.70;99.90;;;;;;5071408;28;20487;-71
2023/10/14 13:18:24;;;;;;;2.00;0.70;;;13.80;99.90;;;;;;5071172;28;20467;-71
2023/10/14 13:20:51;;;;;;;4.13;1.30;;;13.90;99.90;;;;;;5071153;28;20486;-72
2023/10/14 13:23:18;;;;;;;1.50;1.00;;;13.90;99.90;;;;;;5071248;28;20539;-72
2023/10/14 13:25:48;;;;;;;2.73;1.03;;;14.00;99.90;;;;;;5071303;28;20456;-71
2023/10/14 13:28:14;;;;;;;0.80;0.80;;;14.00;99.90;;;;;;5071201;28;20458;-71
2023/10/14 13:30:45;;;;;;;1.27;0.87;;;14.10;99.90;;;;;;5071450;28;20490;-71
2023/10/14 13:33:12;;;;;;;1.70;0.80;;;14.10;99.90;;;;;;5055260;28;20453;-71
2023/10/14 13:35:39;;;;;;;0.63;0.63;;;14.10;99.90;;;;;;5070976;28;20515;-72
2023/10/14 13:38:09;;;;;;;3.37;0.97;;;14.20;99.90;;;;;;5071168;28;20466;-71
2023/10/14 13:40:37;;;;;;;1.07;0.70;;;14.30;99.90;;;;;;5071138;28;20892;-72
2023/10/14 13:43:06;;;;;;;5.50;1.13;;;14.30;99.90;;;;;;5070939;28;20529;-70
2023/10/14 13:45:34;;;;;;;4.90;0.80;;;14.30;99.90;;;;;;5070739;28;20457;-70
2023/10/14 13:48:06;;;;;;;2.70;0.53;;;14.20;99.90;;;;;;5071054;28;20458;-70
2023/10/14 13:50:37;;;;;;;1.03;0.33;;;14.20;99.90;;;;;;5071048;28;20482;-70
2023/10/14 13:53:09;;;;;;;2.10;0.90;;;14.10;99.90;;;;;;5074358;28;20997;-70
2023/10/14 13:55:36;;;;;;;0.63;0.50;;;14.10;99.90;;;;;;5074447;28;20483;-70
2023/10/14 13:58:06;;;;;;;2.20;0.67;;;14.10;99.90;;;;;;5075024;28;20455;-69
2023/10/14 14:00:37;;;;;;;4.83;0.63;;;14.10;99.90;;;;;;5075133;28;20489;-69
2023/10/14 14:03:06;;;;;;;4.37;0.83;;;14.10;99.90;;;;;;5074919;28;20452;-70
2023/10/14 14:05:33;;;;;;;3.50;0.63;;;14.10;99.90;;;;;;5074353;28;20467;-69
2023/10/14 14:07:59;;;;;;;2.27;0.70;;;13.90;99.90;;;;;;5074587;28;20467;-71
2023/10/14 14:10:26;;;;;;;2.20;0.83;;;14.00;99.90;;;;;;5074417;28;20544;-70
2023/10/14 14:12:54;;;;;;;2.40;0.70;;;13.90;99.90;;;;;;5074094;28;20514;-70
2023/10/14 14:15:21;;;;;;;1.50;0.90;;;13.90;99.90;;;;;;5073836;28;20522;-70
2023/10/14 14:17:49;;;;;;;0.80;0.60;;;13.90;99.90;;;;;;5074082;28;20469;-70
2023/10/14 14:20:16;;;;;;;3.30;1.23;;;13.90;99.90;;;;;;5074108;28;20944;-70
2023/10/14 14:22:44;;;;;;;0.30;0.30;;;13.90;99.90;;;;;;5074751;28;20871;-70
2023/10/14 14:25:12;;;;;;;1.37;0.80;;;13.90;99.90;;;;;;5074046;28;20452;-71
2023/10/14 14:27:39;;;;;;;1.20;0.97;;;13.90;99.90;;;;;;5073711;28;20471;-71
2023/10/14 14:30:07;;;;;;;0.50;0.50;;;13.80;99.90;;;;;;5074018;28;20464;-70
2023/10/14 14:32:36;;;;;;;1.07;0.97;;;13.80;99.90;;;;;;5073958;28;20467;-70
2023/10/14 14:35:08;;;;;;;2.00;0.70;;;13.80;99.90;;;;;;5073430;28;20485;-70
2023/10/14 14:37:35;;;;;;;0.60;0.50;;;13.70;99.90;;;;;;5073593;28;21024;-71
2023/10/14 14:40:12;;;;;;;1.13;0.67;;;13.70;99.90;;;;;;5073511;28;20840;-70
2023/10/14 14:42:41;;;;;;;5.43;0.97;;;13.70;99.90;;;;;;5073983;28;20455;-70
2023/10/14 14:45:10;;;;;;;2.40;1.20;;;13.70;99.90;;;;;;5073344;28;20509;-70
2023/10/14 14:47:37;;;;;;;0.93;0.43;;;13.70;99.90;;;;;;5073447;28;20949;-70
2023/10/14 14:50:07;;;;;;;0.93;0.63;;;13.70;99.90;;;;;;5073205;28;20463;-70
2023/10/14 14:52:35;;;;;;;0.70;0.70;;;13.70;99.90;;;;;;5073451;28;20517;-70
2023/10/14 14:55:03;;;;;;;4.70;1.00;;;13.60;99.90;;;;;;5072782;28;20491;-70
2023/10/14 14:57:30;;;;;;;3.43;0.90;;;13.50;99.90;;;;;;5073306;28;20467;-70
2023/10/14 14:59:57;;;;;;;2.37;1.30;;;13.50;99.90;;;;;;5073033;28;20979;-72
2023/10/14 15:02:24;;;;;;;1.17;0.60;;;13.40;99.90;;;;;;5072700;28;20475;-70
2023/10/14 15:04:51;;;;;;;1.60;0.80;;;13.40;99.90;;;;;;5073140;28;20546;-70
2023/10/14 15:07:21;;;;;;;4.10;0.97;;;13.40;99.90;;;;;;5073547;28;20462;-71
2023/10/14 15:09:48;;;;;;;1.10;0.80;;;13.40;99.90;;;;;;5073761;28;21022;-71
2023/10/14 15:12:14;;;;;;;1.33;1.07;;;13.30;99.90;;;;;;5073121;28;20475;-70
2023/10/14 15:14:41;;;;;;;1.37;1.00;;;13.20;99.90;;;;;;5072855;28;20479;-71
2023/10/14 15:17:08;;;;;;;2.30;0.60;;;13.20;99.90;;;;;;5072949;28;20480;-71
2023/10/14 15:19:35;;;;;;;4.03;1.17;;;13.10;99.90;;;;;;5072899;28;20450;-71
2023/10/14 15:22:06;;;;;;;1.83;1.10;;;13.10;99.90;;;;;;5073091;28;20994;-71
2023/10/14 15:24:34;;;;;;;0.97;0.70;;;13.10;99.90;;;;;;5073345;28;20855;-70
2023/10/14 15:27:01;;;;;;;2.83;0.80;;;13.00;99.90;;;;;;5073421;28;20907;-70
2023/10/14 15:29:29;;;;;;;4.43;1.03;;;13.00;99.90;;;;;;5073066;28;20455;-71
2023/10/14 15:31:57;;;;;;;0.60;0.50;;;13.00;99.90;;;;;;5073147;28;20497;-70
2023/10/14 15:34:27;;;;;;;0.77;0.77;;;12.90;99.90;;;;;;5072836;28;20459;-70
2023/10/14 15:36:54;;;;;;;1.27;0.70;;;12.90;99.90;;;;;;5073075;28;20455;-70
2023/10/14 15:39:30;;;;;;;1.90;0.80;;;12.80;99.90;;;;;;5072914;28;20464;-70
2023/10/14 15:41:59;;;;;;;1.33;1.10;;;12.80;99.90;;;;;;5072922;28;20529;-70
2023/10/14 15:44:26;;;;;;;6.17;1.30;;;12.80;99.90;;;;;;5072565;28;20466;-71
2023/10/14 15:46:53;;;;;;;0.80;0.80;;;12.80;99.90;;;;;;5072695;28;20455;-71
2023/10/14 15:49:20;;;;;;;8.27;1.20;;;12.70;99.90;;;;;;5072631;28;20867;-70
2023/10/14 15:51:51;;;;;;;1.10;0.93;;;12.60;99.90;;;;;;5072476;28;20479;-70
2023/10/14 15:54:18;;;;;;;3.50;1.00;;;12.60;99.90;;;;;;5072734;28;20444;-71
2023/10/14 15:56:47;;;;;;;2.90;1.23;;;12.50;99.90;;;;;;5072489;28;20618;-70
2023/10/14 15:59:16;;;;;;;1.27;0.70;;;12.40;99.90;;;;;;5072485;28;20467;-71
2023/10/14 16:01:43;;;;;;;5.93;1.00;;;12.30;99.90;;;;;;5072454;28;20486;-71
2023/10/14 16:04:10;;;;;;;2.20;0.90;;;12.30;99.90;;;;;;5072326;28;20463;-71
2023/10/14 16:06:37;;;;;;;2.20;0.93;;;12.20;99.90;;;;;;5072700;28;20512;-71
2023/10/14 16:09:04;;;;;;;1.90;1.20;;;12.10;99.90;;;;;;5071966;28;20513;-71
2023/10/14 16:11:31;;;;;;;4.28;1.45;;;12.10;99.90;;;;;;5072255;28;20221;-71
2023/10/14 16:14:02;;;;;;;2.08;1.17;;;12.00;99.90;;;;;;5071795;28;20213;-70
2023/10/14 16:16:32;;;;;;;2.13;1.05;;;11.90;99.90;;;;;;5071788;28;20206;-72
2023/10/14 16:19:00;;;;;;;4.28;1.30;;;11.90;99.90;;;;;;5071787;28;20246;-72
2023/10/14 16:21:26;;;;;;;3.78;1.20;;;11.80;99.90;;;;;;5071851;28;20696;-72
2023/10/14 16:23:53;;;;;;;4.07;1.67;;;11.80;99.90;;;;;;5071465;28;20679;-72
2023/10/14 16:26:20;;;;;;;3.85;1.45;;;11.70;99.90;;;;;;5071870;28;20216;-72
2023/10/14 16:29:02;;;;;;;1.05;0.80;;;11.70;99.90;;;;;;5071846;28;20201;-72
2023/10/14 16:31:31;;;;;;;5.30;1.35;;;11.60;99.90;;;;;;5071546;28;20229;-72
2023/10/14 16:33:58;;;;;;;2.25;1.70;;;11.60;99.90;;;;;;5071859;28;20216;-72
2023/10/14 16:36:26;;;;;;;1.50;1.33;;;11.60;99.90;;;;;;5071599;28;20308;-72
2023/10/14 16:38:54;;;;;;;3.53;1.40;;;11.60;99.90;;;;;;5071357;28;20197;-71
2023/10/14 16:41:31;;;;;;;2.85;1.25;;;11.60;99.90;;;;;;5071603;28;20236;-72
2023/10/14 16:44:00;;;;;;;2.58;1.30;;;11.70;99.90;;;;;;5071510;28;20208;-72
2023/10/14 16:46:27;;;;;;;2.08;0.88;;;11.60;99.90;;;;;;5071604;28;20205;-72
2023/10/14 16:48:55;;;;;;;2.45;1.08;;;11.50;99.90;;;;;;5071508;28;20346;-72
2023/10/14 16:51:22;;;;;;;1.48;1.30;;;11.30;99.90;;;;;;5071066;28;20229;-73
2023/10/14 16:53:56;;;;;;;5.45;1.30;;;11.20;99.90;;;;;;5071538;28;20205;-73
2023/10/14 16:56:25;;;;;;;3.35;1.27;;;11.10;99.90;;;;;;5071622;28;20704;-73
2023/10/14 16:58:52;;;;;;;4.70;1.30;;;11.00;99.90;;;;;;5071625;28;20215;-73